createdAt,value
2019-05-13T00:01:53.979Z,62.49
2019-05-13T00:04:27.681Z,62.68
2019-05-13T00:07:01.200Z,62.54
2019-05-13T00:09:34.752Z,62.58
2019-05-13T00:12:08.279Z,62.81
2019-05-13T00:14:43.385Z,62.80
2019-05-13T00:17:16.871Z,62.88
2019-05-13T00:19:50.369Z,63.15
2019-05-13T00:22:23.851Z,63.65
2019-05-13T00:24:57.314Z,63.61
2019-05-13T00:27:30.740Z,63.32
2019-05-13T00:30:04.434Z,63.31
2019-05-13T00:32:37.972Z,63.05
2019-05-13T00:35:13.934Z,63.65
2019-05-13T00:37:47.644Z,63.32
2019-05-13T00:40:21.079Z,63.37
2019-05-13T00:42:54.639Z,63.73
2019-05-13T00:45:28.107Z,63.85
2019-05-13T00:48:04.182Z,63.62
2019-05-13T00:50:36.724Z,63.62
2019-05-13T00:53:10.593Z,63.89
2019-05-13T00:55:44.631Z,64.31
2019-05-13T00:58:18.234Z,64.13
2019-05-13T01:00:51.686Z,64.40
2019-05-13T01:03:28.287Z,64.28
2019-05-13T01:06:00.200Z,64.23
2019-05-13T01:08:33.927Z,64.61
2019-05-13T01:11:08.507Z,64.53
2019-05-13T01:13:43.467Z,64.60
2019-05-13T01:16:17.353Z,64.90
2019-05-13T01:18:50.815Z,65.23
2019-05-13T01:21:25.616Z,65.02
2019-05-13T01:23:59.132Z,65.26
2019-05-13T01:26:33.719Z,65.45
2019-05-13T01:29:07.723Z,65.58
2019-05-13T01:31:43.452Z,65.63
2019-05-13T01:34:18.039Z,65.25
2019-05-13T01:36:53.439Z,65.65
2019-05-13T01:39:27.428Z,65.34
2019-05-13T01:42:03.475Z,65.40
2019-05-13T01:44:35.865Z,65.79
2019-05-13T01:47:09.234Z,65.33
2019-05-13T01:49:43.990Z,65.53
2019-05-13T01:52:17.539Z,65.61
2019-05-13T01:54:51.010Z,66.02
2019-05-13T01:57:24.387Z,66.12
2019-05-13T01:59:57.857Z,66.29
2019-05-13T02:02:33.665Z,65.95
2019-05-13T02:05:07.880Z,65.96
2019-05-13T02:07:54.519Z,66.18
2019-05-13T02:10:18.661Z,65.87
2019-05-13T02:12:53.538Z,65.98
2019-05-13T02:15:26.956Z,65.98
2019-05-13T02:18:00.403Z,66.03
2019-05-13T02:20:33.905Z,65.92
2019-05-13T02:23:07.344Z,65.91
2019-05-13T02:25:43.435Z,65.88
2019-05-13T02:28:16.193Z,65.99
2019-05-13T02:30:49.698Z,66.21
2019-05-13T02:33:23.509Z,66.34
2019-05-13T02:35:58.165Z,66.20
2019-05-13T02:38:35.585Z,66.29
2019-05-13T02:41:07.130Z,66.54
2019-05-13T02:43:44.173Z,66.60
2019-05-13T02:46:15.632Z,66.56
2019-05-13T02:48:52.525Z,66.69
2019-05-13T02:51:24.177Z,66.95
2019-05-13T02:53:57.700Z,66.72
2019-05-13T02:56:33.085Z,66.52
2019-05-13T02:59:06.295Z,66.48
2019-05-13T03:01:42.992Z,66.45
2019-05-13T03:04:14.847Z,66.38
2019-05-13T03:06:48.269Z,66.50
2019-05-13T03:09:22.942Z,66.72
2019-05-13T03:11:57.162Z,66.67
2019-05-13T03:14:32.432Z,66.81
2019-05-13T03:17:13.073Z,66.90
2019-05-13T03:19:46.647Z,66.76
2019-05-13T03:22:22.464Z,66.74
2019-05-13T03:24:55.221Z,66.97
2019-05-13T03:27:28.752Z,67.10
2019-05-13T03:30:04.368Z,67.43
2019-05-13T03:32:44.115Z,67.45
2019-05-13T03:35:16.336Z,67.46
2019-05-13T03:37:47.851Z,67.38
2019-05-13T03:40:23.049Z,67.32
2019-05-13T03:43:02.766Z,67.07
2019-05-13T03:45:37.172Z,67.27
2019-05-13T03:48:12.186Z,67.48
2019-05-13T03:50:46.932Z,67.59
2019-05-13T03:53:23.279Z,67.32
2019-05-13T03:55:55.631Z,67.34
2019-05-13T03:58:32.439Z,67.34
2019-05-13T04:01:04.891Z,67.21
2019-05-13T04:03:38.450Z,66.99
2019-05-13T04:06:13.663Z,67.25
2019-05-13T04:08:47.318Z,67.21
2019-05-13T04:11:22.588Z,67.31
2019-05-13T04:13:55.763Z,67.44
2019-05-13T04:16:32.047Z,67.40
2019-05-13T04:19:04.470Z,67.46
2019-05-13T04:21:37.922Z,67.31
2019-05-13T04:24:12.279Z,67.27
2019-05-13T04:26:45.996Z,67.43
2019-05-13T04:29:23.283Z,67.08
2019-05-13T04:31:55.843Z,67.39
2019-05-13T04:34:29.418Z,67.59
2019-05-13T04:37:02.843Z,67.46
2019-05-13T04:39:46.137Z,67.53
2019-05-13T04:42:12.357Z,67.53
2019-05-13T04:44:45.998Z,67.50
2019-05-13T04:47:22.668Z,67.54
2019-05-13T04:49:54.496Z,67.08
2019-05-13T04:52:32.700Z,67.29
2019-05-13T04:55:04.741Z,67.62
2019-05-13T04:57:42.216Z,67.24
2019-05-13T05:00:14.630Z,66.65
2019-05-13T05:03:22.381Z,65.92
2019-05-13T05:06:22.673Z,65.83
2019-05-13T05:09:45.236Z,64.98
2019-05-13T05:16:46.565Z,63.94
2019-05-13T05:19:52.260Z,63.13
2019-05-13T05:23:42.307Z,62.45
2019-05-13T05:27:32.197Z,60.35
2019-05-13T05:31:02.177Z,61.18
2019-05-13T05:33:51.709Z,60.16
2019-05-13T05:37:11.689Z,59.75
2019-05-13T05:39:45.140Z,58.84
2019-05-13T05:42:21.617Z,57.92
2019-05-13T05:44:56.355Z,56.51
2019-05-13T05:47:33.222Z,57.83
2019-05-13T05:50:07.900Z,56.21
2019-05-13T05:52:43.780Z,55.34
2019-05-13T05:55:17.346Z,55.77
2019-05-13T05:57:52.243Z,55.28
2019-05-13T06:00:26.047Z,55.80
2019-05-13T06:03:02.523Z,54.79
2019-05-13T06:05:36.338Z,54.05
2019-05-13T06:08:11.440Z,53.85
2019-05-13T06:10:50.166Z,53.79
2019-05-13T06:13:21.414Z,53.91
2019-05-13T06:15:55.068Z,52.24
2019-05-13T06:18:28.612Z,52.28
2019-05-13T06:21:02.258Z,50.35
2019-05-13T06:23:36.857Z,48.82
2019-05-13T06:26:12.542Z,48.99
2019-05-13T06:28:45.472Z,49.74
2019-05-13T06:31:21.370Z,49.63
2019-05-13T06:33:54.114Z,48.35
2019-05-13T06:36:28.549Z,48.31
2019-05-13T06:39:02.531Z,49.38
2019-05-13T06:41:35.983Z,49.18
2019-05-13T06:44:11.992Z,49.38
2019-05-13T06:46:44.579Z,48.69
2019-05-13T06:49:18.017Z,49.60
2019-05-13T06:51:52.751Z,50.87
2019-05-13T06:54:26.382Z,51.61
2019-05-13T06:57:04.516Z,51.32
2019-05-13T06:59:35.150Z,50.69
2019-05-13T07:02:09.479Z,50.78
2019-05-13T07:04:42.849Z,52.51
2019-05-13T07:07:17.454Z,52.13
2019-05-13T07:09:51.698Z,49.71
2019-05-13T07:12:25.364Z,49.83
2019-05-13T07:14:58.802Z,50.68
2019-05-13T07:17:32.472Z,51.10
2019-05-13T07:20:14.018Z,50.91
2019-05-13T07:22:47.473Z,51.11
2019-05-13T07:25:22.172Z,51.24
2019-05-13T07:27:55.835Z,51.30
2019-05-13T07:30:44.245Z,51.64
2019-05-13T07:33:17.763Z,51.89
2019-05-13T07:35:57.329Z,51.35
2019-05-13T07:38:26.544Z,49.57
2019-05-13T07:41:06.352Z,49.13
2019-05-13T07:43:42.486Z,49.56
2019-05-13T07:46:14.764Z,48.77
2019-05-13T07:48:48.239Z,48.07
2019-05-13T07:51:22.304Z,49.02
2019-05-13T07:53:55.864Z,49.71
2019-05-13T07:56:29.249Z,50.18
2019-05-13T07:59:03.808Z,50.58
2019-05-13T08:01:37.236Z,50.73
2019-05-13T08:04:21.394Z,49.54
2019-05-13T08:06:45.810Z,49.00
2019-05-13T08:09:21.462Z,50.54
2019-05-13T08:12:05.461Z,50.60
2019-05-13T08:14:29.416Z,51.03
2019-05-13T08:17:03.065Z,50.81
2019-05-13T08:19:36.559Z,48.96
2019-05-13T08:22:11.727Z,48.15
2019-05-13T08:24:45.205Z,48.85
2019-05-13T08:27:24.028Z,48.29
2019-05-13T08:29:53.726Z,48.29
2019-05-13T08:35:58.719Z,47.83
2019-05-13T08:41:54.762Z,48.30
2019-05-13T08:44:28.589Z,46.22
2019-05-13T08:47:03.614Z,46.10
2019-05-13T08:49:37.128Z,45.74
2019-05-13T08:52:12.045Z,46.13
2019-05-13T08:54:45.687Z,46.62
2019-05-13T08:57:19.167Z,46.25
2019-05-13T08:59:52.672Z,45.63
2019-05-13T09:02:26.076Z,46.25
2019-05-13T09:05:02.320Z,47.46
2019-05-13T09:07:35.595Z,46.01
2019-05-13T09:10:09.473Z,45.19
2019-05-13T09:12:43.492Z,45.80
2019-05-13T09:15:17.330Z,46.76
2019-05-13T09:17:51.742Z,43.76
2019-05-13T09:20:25.229Z,45.04
2019-05-13T09:22:58.696Z,44.05
2019-05-13T09:25:32.152Z,43.82
2019-05-13T09:28:05.746Z,42.49
2019-05-13T09:30:42.158Z,43.66
2019-05-13T09:33:14.354Z,43.31
2019-05-13T09:35:50.204Z,42.13
2019-05-13T09:38:23.887Z,41.15
2019-05-13T09:40:57.349Z,40.32
2019-05-13T09:43:31.601Z,41.00
2019-05-13T09:46:05.104Z,39.14
2019-05-13T09:48:38.552Z,42.42
2019-05-13T09:51:12.531Z,40.32
2019-05-13T09:53:46.017Z,39.93
2019-05-13T09:56:19.312Z,39.46
2019-05-13T09:58:52.743Z,38.87
2019-05-13T10:01:26.035Z,39.88
2019-05-13T10:04:02.528Z,39.54
2019-05-13T10:06:35.733Z,38.16
2019-05-13T10:09:12.186Z,39.67
2019-05-13T10:11:45.074Z,39.85
2019-05-13T10:14:18.448Z,38.29
2019-05-13T10:16:51.896Z,39.58
2019-05-13T10:19:25.573Z,38.71
2019-05-13T10:21:59.138Z,40.31
2019-05-13T10:24:32.968Z,40.24
2019-05-13T10:27:06.545Z,37.92
2019-05-13T10:29:42.506Z,39.07
2019-05-13T10:32:15.643Z,38.13
2019-05-13T10:34:52.082Z,37.47
2019-05-13T10:37:24.670Z,36.99
2019-05-13T10:39:57.974Z,39.26
2019-05-13T10:42:31.252Z,39.38
2019-05-13T10:45:04.684Z,39.57
2019-05-13T10:47:37.997Z,39.00
2019-05-13T10:50:11.471Z,39.25
2019-05-13T10:52:44.699Z,39.38
2019-05-13T10:55:18.173Z,37.84
2019-05-13T10:57:51.536Z,39.27
2019-05-13T11:00:49.104Z,36.66
2019-05-13T11:03:24.410Z,36.96
2019-05-13T11:05:57.797Z,36.49
2019-05-13T11:08:33.145Z,36.81
2019-05-13T11:11:06.328Z,36.89
2019-05-13T11:13:52.385Z,37.13
2019-05-13T11:16:14.597Z,37.37
2019-05-13T11:18:51.884Z,37.34
2019-05-13T11:21:25.463Z,37.84
2019-05-13T11:23:58.810Z,37.07
2019-05-13T11:26:36.202Z,36.48
2019-05-13T11:29:07.145Z,34.99
2019-05-13T11:31:42.746Z,36.65
2019-05-13T11:34:15.377Z,34.66
2019-05-13T11:36:48.774Z,33.81
2019-05-13T11:39:22.383Z,32.46
2019-05-13T11:41:55.861Z,34.80
2019-05-13T11:44:31.948Z,32.78
2019-05-13T11:47:04.058Z,34.65
2019-05-13T11:49:37.420Z,34.30
2019-05-13T11:52:11.597Z,33.88
2019-05-13T11:54:45.263Z,34.52
2019-05-13T11:57:18.503Z,35.12
2019-05-13T11:59:52.678Z,34.33
2019-05-13T12:02:26.119Z,35.31
2019-05-13T12:05:03.314Z,34.39
2019-05-13T12:07:36.518Z,32.94
2019-05-13T12:10:12.461Z,33.33
2019-05-13T12:12:45.688Z,33.26
2019-05-13T12:15:33.685Z,32.10
2019-05-13T12:17:54.282Z,33.03
2019-05-13T12:20:27.676Z,33.77
2019-05-13T12:23:03.440Z,34.72
2019-05-13T12:25:37.333Z,34.26
2019-05-13T12:28:11.360Z,31.22
2019-05-13T12:30:45.054Z,31.53
2019-05-13T12:33:19.060Z,31.70
2019-05-13T12:35:53.773Z,30.99
2019-05-13T12:38:27.369Z,29.81
2019-05-13T12:41:05.364Z,31.96
2019-05-13T12:43:35.860Z,32.19
2019-05-13T12:46:12.274Z,30.84
2019-05-13T12:48:44.313Z,31.64
2019-05-13T12:51:17.707Z,30.76
2019-05-13T12:53:52.651Z,29.71
2019-05-13T12:56:26.393Z,31.25
2019-05-13T12:59:02.722Z,31.29
2019-05-13T13:01:35.093Z,30.70
2019-05-13T13:04:08.456Z,31.20
2019-05-13T13:06:45.287Z,31.01
2019-05-13T13:09:18.411Z,31.83
2019-05-13T13:11:54.513Z,32.35
2019-05-13T13:14:34.958Z,33.26
2019-05-13T13:17:04.110Z,34.51
2019-05-13T13:19:37.354Z,32.83
2019-05-13T13:22:13.482Z,33.49
2019-05-13T13:24:52.963Z,34.64
2019-05-13T13:27:47.110Z,34.38
2019-05-13T13:30:07.277Z,33.90
2019-05-13T13:32:37.418Z,34.70
2019-05-13T13:35:14.721Z,34.45
2019-05-13T13:37:46.587Z,34.90
2019-05-13T13:40:28.426Z,35.25
2019-05-13T13:42:55.466Z,35.82
2019-05-13T13:45:32.696Z,36.74
2019-05-13T13:48:05.535Z,36.88
2019-05-13T13:50:38.991Z,36.86
2019-05-13T13:53:13.881Z,37.35
2019-05-13T13:55:47.577Z,37.97
2019-05-13T13:58:25.381Z,38.83
2019-05-13T14:01:07.251Z,39.04
2019-05-13T14:03:33.910Z,38.11
2019-05-13T14:06:12.351Z,38.78
2019-05-13T14:08:45.291Z,37.71
2019-05-13T14:11:18.658Z,35.59
2019-05-13T14:13:52.134Z,36.16
2019-05-13T14:16:31.493Z,35.67
2019-05-13T14:19:02.327Z,36.08
2019-05-13T14:21:35.806Z,35.84
2019-05-13T14:24:12.064Z,35.77
2019-05-13T14:26:46.064Z,36.09
2019-05-13T14:29:36.314Z,36.94
2019-05-13T14:32:01.987Z,36.38
2019-05-13T14:34:36.964Z,35.99
2019-05-13T14:37:12.073Z,36.52
2019-05-13T14:39:45.815Z,36.73
2019-05-13T14:42:22.570Z,36.48
2019-05-13T14:44:54.946Z,35.56
2019-05-13T14:47:28.746Z,36.13
2019-05-13T14:50:02.532Z,36.73
2019-05-13T14:52:36.176Z,36.87
2019-05-13T14:55:11.283Z,36.03
2019-05-13T14:57:47.265Z,37.15
2019-05-13T15:00:22.477Z,37.07
2019-05-13T15:02:57.015Z,35.46
2019-05-13T15:05:31.445Z,36.84
2019-05-13T15:08:04.943Z,36.13
2019-05-13T15:10:38.382Z,36.62
2019-05-13T15:13:12.266Z,36.66
2019-05-13T15:15:45.622Z,36.50
2019-05-13T15:18:19.154Z,37.72
2019-05-13T15:20:53.115Z,37.94
2019-05-13T15:23:38.947Z,38.82
2019-05-13T15:26:13.467Z,37.88
2019-05-13T15:28:51.098Z,36.36
2019-05-13T15:31:24.503Z,37.08
2019-05-13T15:33:58.069Z,38.43
2019-05-13T15:36:32.676Z,38.97
2019-05-13T15:39:11.283Z,38.72
2019-05-13T15:41:45.552Z,39.05
2019-05-13T15:44:21.821Z,40.16
2019-05-13T15:46:54.527Z,39.46
2019-05-13T15:49:28.194Z,40.09
2019-05-13T15:52:02.202Z,39.42
2019-05-13T15:54:35.646Z,40.26
2019-05-13T15:57:13.779Z,39.65
2019-05-13T15:59:47.273Z,38.60
2019-05-13T16:02:22.622Z,39.88
2019-05-13T16:05:01.282Z,39.27
2019-05-13T16:07:32.175Z,39.71
2019-05-13T16:10:06.510Z,39.86
2019-05-13T16:12:42.290Z,39.61
2019-05-13T16:15:16.696Z,39.02
2019-05-13T16:17:52.089Z,39.38
2019-05-13T16:20:25.917Z,38.68
2019-05-13T16:23:02.162Z,36.58
2019-05-13T16:25:35.216Z,35.95
2019-05-13T16:28:08.892Z,35.05
2019-05-13T16:30:42.484Z,35.34
2019-05-13T16:33:17.320Z,35.56
2019-05-13T16:35:51.723Z,36.88
2019-05-13T16:38:25.357Z,36.41
2019-05-13T16:40:59.553Z,37.39
2019-05-13T16:43:33.030Z,37.71
2019-05-13T16:46:07.271Z,38.36
2019-05-13T16:48:41.581Z,38.72
2019-05-13T16:51:15.778Z,40.02
2019-05-13T16:53:49.148Z,38.82
2019-05-13T16:56:27.852Z,38.58
2019-05-13T16:58:57.461Z,38.58
2019-05-13T17:01:30.866Z,38.94
2019-05-13T17:04:05.239Z,37.99
2019-05-13T17:06:41.878Z,38.50
2019-05-13T17:09:15.324Z,38.12
2019-05-13T17:11:48.754Z,34.53
2019-05-13T17:14:22.115Z,34.80
2019-05-13T17:16:55.440Z,35.08
2019-05-13T17:19:28.814Z,34.32
2019-05-13T17:22:02.663Z,34.77
2019-05-13T17:24:36.076Z,35.97
2019-05-13T17:27:09.483Z,35.25
2019-05-13T17:29:42.868Z,35.22
2019-05-13T17:32:16.175Z,35.00
2019-05-13T17:34:51.423Z,35.68
2019-05-13T17:37:25.383Z,35.62
2019-05-13T17:40:01.134Z,35.62
2019-05-13T17:42:33.936Z,35.73
2019-05-13T17:45:07.660Z,35.37
2019-05-13T17:47:41.774Z,35.71
2019-05-13T17:50:15.549Z,35.95
2019-05-13T17:52:51.218Z,36.52
2019-05-13T17:55:23.936Z,36.97
2019-05-13T17:57:57.273Z,36.37
2019-05-13T18:00:32.242Z,36.64
2019-05-13T18:03:05.879Z,36.25
2019-05-13T18:05:39.083Z,36.89
2019-05-13T18:08:12.354Z,36.01
2019-05-13T18:10:45.585Z,35.10
2019-05-13T18:13:21.355Z,35.58
2019-05-13T18:15:54.003Z,35.70
2019-05-13T18:18:39.174Z,35.35
2019-05-13T18:21:02.411Z,35.05
2019-05-13T18:23:35.816Z,34.94
2019-05-13T18:26:09.233Z,35.39
2019-05-13T18:28:42.665Z,34.12
2019-05-13T18:31:16.064Z,34.70
2019-05-13T18:33:51.073Z,35.17
2019-05-13T18:36:24.465Z,35.30
2019-05-13T18:38:57.925Z,35.73
2019-05-13T18:41:31.668Z,36.03
2019-05-13T18:44:05.143Z,42.24
2019-05-13T18:46:38.602Z,38.12
2019-05-13T18:49:12.239Z,36.57
2019-05-13T18:51:45.503Z,36.98
2019-05-13T18:54:18.934Z,37.60
2019-05-13T18:56:52.495Z,37.99
2019-05-13T18:59:26.879Z,37.64
2019-05-13T19:02:01.548Z,39.10
2019-05-13T19:04:36.056Z,39.70
2019-05-13T19:07:09.465Z,39.85
2019-05-13T19:09:42.724Z,40.43
2019-05-13T19:12:16.155Z,41.20
2019-05-13T19:14:52.918Z,42.04
2019-05-13T19:17:26.390Z,42.71
2019-05-13T19:19:59.837Z,43.31
2019-05-13T19:22:33.468Z,43.56
2019-05-13T19:25:07.377Z,44.69
2019-05-13T19:27:41.521Z,44.27
2019-05-13T19:30:15.207Z,44.86
2019-05-13T19:32:48.686Z,45.01
2019-05-13T19:35:22.618Z,45.51
2019-05-13T19:37:56.010Z,45.50
2019-05-13T19:40:31.273Z,45.82
2019-05-13T19:43:04.514Z,46.16
2019-05-13T19:45:38.214Z,46.34
2019-05-13T19:48:12.026Z,46.41
2019-05-13T19:50:45.458Z,46.61
2019-05-13T19:53:18.896Z,46.98
2019-05-13T19:55:52.340Z,47.10
2019-05-13T19:58:25.778Z,47.33
2019-05-13T20:00:59.237Z,47.52
2019-05-13T20:03:32.785Z,47.25
2019-05-13T20:06:06.264Z,47.10
2019-05-13T20:08:41.300Z,47.19
2019-05-13T20:11:14.989Z,46.92
2019-05-13T20:13:48.456Z,46.72
2019-05-13T20:16:22.436Z,47.18
2019-05-13T20:18:55.910Z,46.88
2019-05-13T20:21:31.755Z,46.70
2019-05-13T20:24:04.496Z,46.68
2019-05-13T20:26:37.960Z,47.06
2019-05-13T20:29:12.376Z,47.07
2019-05-13T20:31:46.201Z,46.67
2019-05-13T20:34:22.048Z,47.59
2019-05-13T20:36:54.949Z,47.88
2019-05-13T20:39:28.900Z,47.73
2019-05-13T20:42:02.792Z,47.39
2019-05-13T20:44:36.318Z,48.50
2019-05-13T20:47:10.171Z,47.11
2019-05-13T20:49:43.545Z,47.17
2019-05-13T20:52:17.109Z,47.15
2019-05-13T20:54:51.225Z,47.78
2019-05-13T20:57:26.086Z,47.25
2019-05-13T21:00:01.832Z,47.38
2019-05-13T21:02:34.949Z,46.77
2019-05-13T21:05:08.873Z,46.67
2019-05-13T21:07:42.267Z,46.49
2019-05-13T21:10:17.018Z,46.30
2019-05-13T21:12:51.402Z,46.20
2019-05-13T21:15:25.174Z,46.11
2019-05-13T21:17:58.825Z,46.50
2019-05-13T21:20:32.514Z,46.52
2019-05-13T21:23:06.832Z,46.26
2019-05-13T21:25:41.811Z,46.45
2019-05-13T21:28:15.735Z,46.60
2019-05-13T21:30:51.498Z,47.08
2019-05-13T21:33:27.415Z,46.83
2019-05-13T21:36:01.691Z,47.23
2019-05-13T21:38:36.658Z,47.15
2019-05-13T21:41:11.778Z,47.52
2019-05-13T21:43:45.466Z,47.56
2019-05-13T21:46:21.110Z,47.74
2019-05-13T21:48:55.137Z,47.82
2019-05-13T21:51:31.379Z,47.92
2019-05-13T21:54:04.683Z,47.87
2019-05-13T21:56:38.208Z,48.00
2019-05-13T21:59:11.761Z,48.13
2019-05-13T22:01:45.197Z,48.39
2019-05-13T22:04:18.739Z,48.63
2019-05-13T22:06:52.663Z,48.88
2019-05-13T22:09:26.503Z,49.06
2019-05-13T22:12:01.895Z,48.91
2019-05-13T22:14:35.155Z,49.15
2019-05-13T22:17:09.046Z,49.20
2019-05-13T22:19:42.823Z,48.95
2019-05-13T22:22:16.447Z,48.93
2019-05-13T22:24:51.232Z,49.20
2019-05-13T22:27:24.799Z,49.63
2019-05-13T22:30:01.300Z,50.10
2019-05-13T22:32:34.880Z,50.08
2019-05-13T22:35:11.029Z,49.93
2019-05-13T22:37:43.902Z,50.09
2019-05-13T22:40:18.313Z,50.11
2019-05-13T22:42:56.823Z,50.25
2019-05-13T22:45:27.144Z,50.28
2019-05-13T22:48:02.696Z,50.53
2019-05-13T22:50:36.066Z,50.20
2019-05-13T22:53:11.845Z,50.25
2019-05-13T22:55:44.869Z,50.51
2019-05-13T22:58:22.359Z,51.06
2019-05-13T23:00:55.409Z,51.08
2019-05-13T23:03:30.270Z,50.30
2019-05-13T23:06:05.402Z,50.36
2019-05-13T23:08:39.535Z,50.14
2019-05-13T23:11:13.839Z,49.84
2019-05-13T23:13:51.343Z,49.72
2019-05-13T23:16:28.120Z,49.70
2019-05-13T23:19:05.152Z,49.64
2019-05-13T23:21:38.897Z,48.95
2019-05-13T23:24:12.889Z,48.91
2019-05-13T23:26:47.025Z,48.91
2019-05-13T23:29:21.369Z,48.88
2019-05-13T23:31:57.416Z,48.99
2019-05-13T23:34:32.035Z,48.90
2019-05-13T23:37:06.225Z,48.97
2019-05-13T23:39:41.819Z,49.21
2019-05-13T23:42:21.221Z,49.17
2019-05-13T23:44:58.750Z,49.61
2019-05-13T23:47:36.852Z,49.69
2019-05-13T23:50:13.800Z,49.76
2019-05-13T23:52:47.933Z,49.75
2019-05-13T23:55:22.621Z,49.88
2019-05-13T23:57:56.875Z,50.10
